createdAt,value
2018-01-06T00:01:56.757Z,7.00
2018-01-06T00:04:40.930Z,7.00
2018-01-06T00:09:44.216Z,6.80
2018-01-06T00:12:12.708Z,6.70
2018-01-06T00:14:41.547Z,6.80
2018-01-06T00:17:09.340Z,6.70
2018-01-06T00:19:37.699Z,6.60
2018-01-06T00:22:07.272Z,6.60
2018-01-06T00:27:10.462Z,6.60
2018-01-06T00:29:37.953Z,6.60
2018-01-06T00:32:05.453Z,6.60
2018-01-06T00:34:32.909Z,6.70
2018-01-06T00:37:00.459Z,6.70
2018-01-06T00:39:28.011Z,6.80
2018-01-06T00:41:55.485Z,6.80
2018-01-06T00:44:22.941Z,6.80
2018-01-06T00:46:50.426Z,6.90
2018-01-06T00:49:17.932Z,6.90
2018-01-06T00:51:45.431Z,6.90
2018-01-06T00:54:12.902Z,6.90
2018-01-06T00:56:40.402Z,6.80
2018-01-06T00:59:07.870Z,6.70
2018-01-06T01:01:35.359Z,6.60
2018-01-06T01:04:02.831Z,6.60
2018-01-06T01:06:30.285Z,6.40
2018-01-06T01:08:57.774Z,6.30
2018-01-06T01:11:25.273Z,6.30
2018-01-06T01:13:52.729Z,6.40
2018-01-06T01:16:20.247Z,6.40
2018-01-06T01:18:47.697Z,6.50
2018-01-06T01:21:15.178Z,6.50
2018-01-06T01:23:42.644Z,6.60
2018-01-06T01:26:10.127Z,6.60
2018-01-06T01:28:37.618Z,6.70
2018-01-06T01:31:05.118Z,6.70
2018-01-06T01:33:32.589Z,6.70
2018-01-06T01:36:00.066Z,6.70
2018-01-06T01:38:28.322Z,6.70
2018-01-06T01:40:55.796Z,6.60
2018-01-06T01:43:23.255Z,6.60
2018-01-06T01:45:51.504Z,6.70
2018-01-06T01:48:19.002Z,6.70
2018-01-06T01:50:46.491Z,6.70
2018-01-06T01:53:13.976Z,6.80
2018-01-06T01:55:41.438Z,6.80
2018-01-06T01:58:08.926Z,6.80
2018-01-06T02:00:36.457Z,6.80
2018-01-06T02:03:03.933Z,6.80
2018-01-06T02:05:31.406Z,6.70
2018-01-06T02:07:58.892Z,6.70
2018-01-06T02:10:26.355Z,6.70
2018-01-06T02:12:53.839Z,6.70
2018-01-06T02:15:21.323Z,6.60
2018-01-06T02:17:48.825Z,6.60
2018-01-06T02:20:16.301Z,6.50
2018-01-06T02:22:43.830Z,6.40
2018-01-06T02:25:11.315Z,6.40
2018-01-06T02:27:38.793Z,6.30
2018-01-06T02:30:07.171Z,6.50
2018-01-06T02:32:34.740Z,6.50
2018-01-06T02:35:02.215Z,6.60
2018-01-06T02:37:29.674Z,6.60
2018-01-06T02:39:57.149Z,6.70
2018-01-06T02:42:24.622Z,6.80
2018-01-06T02:44:52.089Z,6.90
2018-01-06T02:47:19.554Z,7.00
2018-01-06T02:49:47.064Z,7.00
2018-01-06T02:52:14.586Z,6.90
2018-01-06T02:54:42.831Z,6.80
2018-01-06T02:57:10.332Z,6.80
2018-01-06T02:59:38.570Z,6.80
2018-01-06T03:02:06.037Z,6.80
2018-01-06T03:04:33.520Z,6.90
2018-01-06T03:07:01.024Z,7.00
2018-01-06T03:09:28.595Z,7.00
2018-01-06T03:11:56.054Z,7.00
2018-01-06T03:14:23.537Z,7.00
2018-01-06T03:16:51.018Z,6.90
2018-01-06T03:19:18.482Z,6.90
2018-01-06T03:21:45.980Z,6.90
2018-01-06T03:24:13.463Z,6.90
2018-01-06T03:26:40.946Z,6.90
2018-01-06T03:29:08.408Z,6.80
2018-01-06T03:31:35.953Z,6.80
2018-01-06T03:34:04.213Z,6.80
2018-01-06T03:36:31.685Z,6.80
2018-01-06T03:38:59.915Z,6.90
2018-01-06T03:41:27.410Z,6.90
2018-01-06T03:43:55.642Z,7.00
2018-01-06T03:46:28.806Z,7.00
2018-01-06T03:48:56.339Z,7.00
2018-01-06T03:51:24.623Z,7.10
2018-01-06T03:53:52.868Z,7.10
2018-01-06T03:56:20.329Z,7.10
2018-01-06T03:58:47.792Z,7.10
2018-01-06T04:01:15.261Z,7.00
2018-01-06T04:03:42.795Z,7.10
2018-01-06T04:06:10.271Z,7.10
2018-01-06T04:08:37.794Z,7.10
2018-01-06T04:11:05.230Z,7.10
2018-01-06T04:13:32.718Z,7.00
2018-01-06T04:16:00.179Z,7.10
2018-01-06T04:18:27.657Z,7.10
2018-01-06T04:20:55.131Z,7.00
2018-01-06T04:23:23.373Z,7.00
2018-01-06T04:25:50.851Z,7.00
2018-01-06T04:28:19.301Z,6.90
2018-01-06T04:30:46.778Z,6.90
2018-01-06T04:33:14.263Z,6.90
2018-01-06T04:35:41.747Z,6.80
2018-01-06T04:38:09.218Z,6.80
2018-01-06T04:40:36.682Z,6.60
2018-01-06T04:43:04.438Z,6.60
2018-01-06T04:45:31.936Z,6.50
2018-01-06T04:48:00.210Z,6.40
2018-01-06T04:50:28.493Z,6.40
2018-01-06T04:52:55.968Z,6.40
2018-01-06T04:55:23.468Z,6.30
2018-01-06T04:57:50.924Z,6.20
2018-01-06T05:00:18.398Z,6.20
2018-01-06T05:02:45.904Z,6.20
2018-01-06T05:05:13.382Z,6.20
2018-01-06T05:07:40.842Z,6.20
2018-01-06T05:10:08.331Z,6.20
2018-01-06T05:12:35.843Z,6.30
2018-01-06T05:15:03.343Z,6.40
2018-01-06T05:17:30.809Z,6.40
2018-01-06T05:19:58.295Z,6.50
2018-01-06T05:22:26.521Z,6.70
2018-01-06T05:24:53.985Z,6.60
2018-01-06T05:27:21.487Z,6.70
2018-01-06T05:29:48.957Z,6.70
2018-01-06T05:32:16.470Z,6.80
2018-01-06T05:34:43.977Z,6.80
2018-01-06T05:37:11.466Z,6.80
2018-01-06T05:39:38.947Z,6.80
2018-01-06T05:42:06.419Z,6.80
2018-01-06T05:44:34.670Z,6.80
2018-01-06T05:47:02.160Z,6.80
2018-01-06T05:49:30.390Z,6.80
2018-01-06T05:51:57.893Z,6.80
2018-01-06T05:54:25.378Z,6.90
2018-01-06T05:56:52.872Z,6.90
2018-01-06T05:59:20.466Z,6.80
2018-01-06T06:01:48.696Z,6.80
2018-01-06T06:04:16.197Z,6.80
2018-01-06T06:06:44.487Z,6.70
2018-01-06T06:09:11.938Z,6.70
2018-01-06T06:11:39.434Z,6.70
2018-01-06T06:14:06.922Z,6.70
2018-01-06T06:16:34.493Z,6.70
2018-01-06T06:19:01.966Z,6.80
2018-01-06T06:21:29.430Z,6.80
2018-01-06T06:23:56.886Z,6.70
2018-01-06T06:26:24.398Z,6.70
2018-01-06T06:28:51.870Z,6.60
2018-01-06T06:31:19.376Z,6.70
2018-01-06T06:33:46.831Z,6.70
2018-01-06T06:36:15.111Z,6.70
2018-01-06T06:38:42.594Z,6.70
2018-01-06T06:41:10.070Z,6.70
2018-01-06T06:43:37.612Z,6.70
2018-01-06T06:46:05.254Z,6.80
2018-01-06T06:48:33.006Z,7.00
2018-01-06T06:51:00.494Z,7.10
2018-01-06T06:53:27.970Z,7.10
2018-01-06T06:55:55.484Z,7.00
2018-01-06T06:58:22.990Z,7.00
2018-01-06T07:00:50.479Z,7.10
2018-01-06T07:03:17.965Z,7.10
2018-01-06T07:05:45.469Z,7.10
2018-01-06T07:08:13.503Z,7.10
2018-01-06T07:10:43.962Z,7.00
2018-01-06T07:13:11.553Z,7.00
2018-01-06T07:15:39.070Z,7.00
2018-01-06T07:18:06.646Z,7.00
2018-01-06T07:20:34.931Z,7.10
2018-01-06T07:23:02.435Z,7.10
2018-01-06T07:25:29.910Z,7.10
2018-01-06T07:27:57.378Z,7.00
2018-01-06T07:30:24.858Z,7.00
2018-01-06T07:32:56.140Z,7.10
2018-01-06T07:35:25.069Z,7.00
2018-01-06T07:37:53.153Z,7.00
2018-01-06T07:40:20.780Z,6.90
2018-01-06T07:42:50.940Z,7.00
2018-01-06T07:45:18.599Z,7.00
2018-01-06T07:47:46.282Z,6.90
2018-01-06T07:50:13.809Z,6.90
2018-01-06T07:52:42.223Z,7.00
2018-01-06T07:55:09.764Z,6.90
2018-01-06T07:57:41.543Z,7.00
2018-01-06T08:00:09.583Z,7.00
2018-01-06T08:02:37.218Z,7.00
2018-01-06T08:05:04.723Z,7.00
2018-01-06T08:07:32.225Z,7.00
2018-01-06T08:09:59.708Z,6.90
2018-01-06T08:12:27.174Z,7.00
2018-01-06T08:14:55.405Z,7.10
2018-01-06T08:17:22.889Z,7.10
2018-01-06T08:19:50.346Z,7.10
2018-01-06T08:22:17.981Z,7.10
2018-01-06T08:24:45.460Z,7.20
2018-01-06T08:27:12.914Z,7.10
2018-01-06T08:29:40.382Z,7.10
2018-01-06T08:32:07.854Z,7.10
2018-01-06T08:34:36.103Z,7.20
2018-01-06T08:37:03.577Z,7.20
2018-01-06T08:39:31.285Z,7.30
2018-01-06T08:41:58.753Z,7.20
2018-01-06T08:44:26.218Z,7.10
2018-01-06T08:46:53.674Z,7.00
2018-01-06T08:49:21.132Z,7.00
2018-01-06T08:51:48.603Z,6.90
2018-01-06T08:54:16.067Z,6.90
2018-01-06T08:56:43.631Z,6.90
2018-01-06T08:59:11.107Z,6.80
2018-01-06T09:01:38.553Z,6.80
2018-01-06T09:04:06.017Z,6.80
2018-01-06T09:06:33.470Z,6.80
2018-01-06T09:09:00.927Z,6.80
2018-01-06T09:11:29.262Z,6.80
2018-01-06T09:13:56.739Z,6.80
2018-01-06T09:16:24.223Z,6.90
2018-01-06T09:18:51.732Z,6.80
2018-01-06T09:21:19.331Z,6.90
2018-01-06T09:23:46.809Z,7.00
2018-01-06T09:26:14.332Z,7.00
2018-01-06T09:28:41.889Z,7.00
2018-01-06T09:31:10.518Z,7.10
2018-01-06T09:33:38.075Z,7.10
2018-01-06T09:36:05.807Z,7.10
2018-01-06T09:38:34.728Z,7.10
2018-01-06T09:41:02.232Z,7.10
2018-01-06T09:43:29.719Z,7.10
2018-01-06T09:45:59.606Z,7.20
2018-01-06T09:48:27.272Z,7.10
2018-01-06T09:50:54.862Z,7.10
2018-01-06T09:53:22.750Z,7.20
2018-01-06T09:55:51.756Z,7.10
2018-01-06T09:58:19.616Z,7.10
2018-01-06T10:00:47.137Z,7.20
2018-01-06T10:03:14.747Z,7.20
2018-01-06T10:05:42.268Z,7.10
2018-01-06T10:08:12.067Z,7.20
2018-01-06T10:10:40.796Z,7.20
2018-01-06T10:13:08.459Z,7.20
2018-01-06T10:15:36.124Z,7.20
2018-01-06T10:18:05.968Z,7.20
2018-01-06T10:20:33.727Z,7.30
2018-01-06T10:23:01.273Z,7.30
2018-01-06T10:25:28.877Z,7.40
2018-01-06T10:27:58.211Z,7.40
2018-01-06T10:30:25.978Z,7.40
2018-01-06T10:32:53.580Z,7.40
2018-01-06T10:35:23.864Z,7.50
2018-01-06T10:37:52.664Z,7.60
2018-01-06T10:40:20.516Z,7.60
2018-01-06T10:42:48.187Z,7.50
2018-01-06T10:45:15.779Z,7.50
2018-01-06T10:47:43.386Z,7.40
2018-01-06T10:50:11.092Z,7.40
2018-01-06T10:52:38.739Z,7.40
2018-01-06T10:55:06.278Z,7.40
2018-01-06T10:57:38.437Z,7.50
2018-01-06T11:00:06.000Z,7.50
2018-01-06T11:02:33.521Z,7.40
2018-01-06T11:05:01.663Z,7.40
2018-01-06T11:07:29.283Z,7.40
2018-01-06T11:09:56.802Z,7.40
2018-01-06T11:12:24.314Z,7.40
2018-01-06T11:14:52.003Z,7.40
2018-01-06T11:17:19.510Z,7.40
2018-01-06T11:19:47.025Z,7.40
2018-01-06T11:22:14.519Z,7.30
2018-01-06T11:24:42.029Z,7.20
2018-01-06T11:27:09.731Z,7.20
2018-01-06T11:29:37.269Z,7.20
2018-01-06T11:32:04.858Z,7.10
2018-01-06T11:34:32.477Z,7.20
2018-01-06T11:37:01.155Z,7.30
2018-01-06T11:39:28.690Z,7.30
2018-01-06T11:41:56.198Z,7.30
2018-01-06T11:44:23.650Z,7.30
2018-01-06T11:46:51.102Z,7.30
2018-01-06T11:49:18.596Z,7.40
2018-01-06T11:51:46.832Z,7.40
2018-01-06T11:54:14.833Z,7.40
2018-01-06T11:56:42.307Z,7.40
2018-01-06T11:59:10.554Z,7.60
2018-01-06T12:01:38.030Z,7.60
2018-01-06T12:04:05.487Z,7.60
2018-01-06T12:06:32.966Z,7.70
2018-01-06T12:09:00.430Z,7.70
2018-01-06T12:11:27.869Z,7.70
2018-01-06T12:13:55.321Z,7.70
2018-01-06T12:16:23.571Z,7.60
2018-01-06T12:18:51.143Z,7.60
2018-01-06T12:21:18.614Z,7.60
2018-01-06T12:23:46.841Z,7.50
2018-01-06T12:26:14.315Z,7.40
2018-01-06T12:28:41.772Z,7.40
2018-01-06T12:31:09.274Z,7.30
2018-01-06T12:33:36.791Z,7.20
2018-01-06T12:36:04.297Z,7.10
2018-01-06T12:38:31.749Z,7.00
2018-01-06T12:40:59.204Z,6.90
2018-01-06T12:43:26.630Z,6.90
2018-01-06T12:45:54.089Z,6.80
2018-01-06T12:48:22.341Z,6.80
2018-01-06T12:50:49.839Z,6.80
2018-01-06T12:53:17.311Z,6.70
2018-01-06T12:55:44.822Z,6.80
2018-01-06T12:58:12.298Z,6.80
2018-01-06T13:00:39.751Z,6.90
2018-01-06T13:03:07.214Z,6.80
2018-01-06T13:05:34.671Z,6.70
2018-01-06T13:08:02.900Z,6.70
2018-01-06T13:10:30.450Z,6.70
2018-01-06T13:12:58.692Z,6.60
2018-01-06T13:15:26.908Z,6.50
2018-01-06T13:17:54.358Z,6.50
2018-01-06T13:20:21.813Z,6.50
2018-01-06T13:22:49.271Z,6.50
2018-01-06T13:25:16.739Z,6.50
2018-01-06T13:27:44.205Z,6.50
2018-01-06T13:30:11.654Z,6.50
2018-01-06T13:32:39.429Z,6.60
2018-01-06T13:35:07.199Z,6.50
2018-01-06T13:37:43.164Z,6.30
2018-01-06T13:40:12.601Z,6.30
2018-01-06T13:42:44.601Z,6.30
2018-01-06T13:45:12.638Z,6.20
2018-01-06T13:47:43.393Z,6.20
2018-01-06T13:50:11.072Z,6.20
2018-01-06T13:55:14.455Z,6.00
2018-01-06T13:57:44.406Z,6.00
2018-01-06T14:00:11.942Z,5.90
2018-01-06T14:02:39.436Z,6.00
2018-01-06T14:05:07.014Z,5.90
2018-01-06T14:07:34.636Z,6.00
2018-01-06T14:10:02.185Z,6.00
2018-01-06T14:12:30.874Z,6.00
2018-01-06T14:14:58.488Z,5.90
2018-01-06T14:17:26.045Z,5.90
2018-01-06T14:19:53.510Z,5.90
2018-01-06T14:22:21.212Z,5.70
2018-01-06T14:24:49.627Z,5.60
2018-01-06T14:27:18.556Z,5.60
2018-01-06T14:29:46.103Z,5.60
2018-01-06T14:32:14.631Z,5.50
2018-01-06T14:34:46.841Z,5.50
2018-01-06T14:37:19.562Z,5.40
2018-01-06T14:39:47.053Z,5.40
2018-01-06T14:42:15.619Z,5.20
2018-01-06T14:44:44.469Z,5.20
2018-01-06T14:47:12.249Z,5.20
2018-01-06T14:49:39.891Z,5.30
2018-01-06T14:52:07.432Z,5.40
2018-01-06T14:54:34.988Z,5.30
2018-01-06T14:57:02.455Z,5.30
2018-01-06T14:59:30.115Z,5.30
2018-01-06T15:01:57.635Z,5.40
2018-01-06T15:04:25.091Z,5.50
2018-01-06T15:06:52.568Z,5.50
2018-01-06T15:09:20.037Z,5.50
2018-01-06T15:11:47.578Z,5.40
2018-01-06T15:14:15.020Z,5.40
2018-01-06T15:16:42.498Z,5.30
2018-01-06T15:19:09.973Z,5.40
2018-01-06T15:21:37.538Z,5.40
2018-01-06T15:24:05.095Z,5.40
2018-01-06T15:26:32.761Z,5.30
2018-01-06T15:29:00.225Z,5.40
2018-01-06T15:31:27.754Z,5.40
2018-01-06T15:33:56.034Z,5.20
2018-01-06T15:36:23.651Z,5.20
2018-01-06T15:38:51.110Z,5.30
2018-01-06T15:41:18.556Z,5.20
2018-01-06T15:43:46.034Z,5.20
2018-01-06T15:46:13.586Z,5.20
2018-01-06T15:48:41.043Z,5.30
2018-01-06T15:51:08.491Z,5.20
2018-01-06T15:53:36.106Z,5.20
2018-01-06T15:56:03.658Z,5.20
2018-01-06T15:58:31.169Z,5.30
2018-01-06T16:00:58.907Z,5.40
2018-01-06T16:03:26.362Z,5.40
2018-01-06T16:05:53.814Z,5.30
2018-01-06T16:08:21.278Z,5.10
2018-01-06T16:10:48.786Z,5.20
2018-01-06T16:13:16.322Z,5.20
2018-01-06T16:15:43.822Z,5.10
2018-01-06T16:18:11.352Z,5.10
2018-01-06T16:20:39.039Z,5.10
2018-01-06T16:23:06.761Z,5.10
2018-01-06T16:25:34.383Z,5.10
2018-01-06T16:28:02.016Z,5.20
2018-01-06T16:30:29.690Z,5.00
2018-01-06T16:32:57.753Z,5.00
2018-01-06T16:35:25.536Z,5.00
2018-01-06T16:37:53.674Z,5.10
2018-01-06T16:40:21.281Z,5.10
2018-01-06T16:42:48.850Z,5.10
2018-01-06T16:45:16.322Z,5.10
2018-01-06T16:47:43.789Z,5.10
2018-01-06T16:50:11.234Z,5.10
2018-01-06T16:52:38.673Z,5.10
2018-01-06T16:55:06.156Z,5.00
2018-01-06T16:57:33.674Z,5.00
2018-01-06T17:00:01.176Z,4.80
2018-01-06T17:02:28.644Z,4.80
2018-01-06T17:04:56.113Z,4.70
2018-01-06T17:07:23.639Z,4.70
2018-01-06T17:09:51.054Z,4.60
2018-01-06T17:12:19.280Z,4.60
2018-01-06T17:14:46.732Z,4.60
2018-01-06T17:17:14.288Z,4.40
2018-01-06T17:19:41.757Z,4.40
2018-01-06T17:22:09.421Z,4.40
2018-01-06T17:24:36.870Z,4.40
2018-01-06T17:27:04.315Z,4.30
2018-01-06T17:29:31.896Z,4.30
2018-01-06T17:31:59.359Z,4.30
2018-01-06T17:34:26.802Z,4.30
2018-01-06T17:36:54.253Z,4.30
2018-01-06T17:39:21.699Z,4.30
2018-01-06T17:41:49.169Z,4.40
2018-01-06T17:44:16.671Z,4.20
2018-01-06T17:46:44.109Z,4.30
2018-01-06T17:49:11.555Z,4.20
2018-01-06T17:51:39.012Z,4.40
2018-01-06T17:54:06.477Z,4.40
2018-01-06T17:56:33.922Z,4.50
2018-01-06T17:59:01.397Z,4.40
2018-01-06T18:01:28.920Z,4.50
2018-01-06T18:03:56.409Z,4.50
2018-01-06T18:06:23.856Z,4.50
2018-01-06T18:08:51.313Z,4.50
2018-01-06T18:11:18.774Z,4.60
2018-01-06T18:13:46.268Z,4.60
2018-01-06T18:16:14.508Z,4.50
2018-01-06T18:18:42.025Z,4.50
2018-01-06T18:21:09.490Z,4.60
2018-01-06T18:23:36.962Z,4.50
2018-01-06T18:26:04.417Z,4.50
2018-01-06T18:28:31.885Z,4.50
2018-01-06T18:30:59.346Z,4.60
2018-01-06T18:33:26.806Z,4.70
2018-01-06T18:35:54.274Z,4.70
2018-01-06T18:38:21.757Z,4.70
2018-01-06T18:40:49.226Z,4.70
2018-01-06T18:43:16.784Z,4.60
2018-01-06T18:45:44.498Z,4.70
2018-01-06T18:48:12.282Z,4.60
2018-01-06T18:50:39.909Z,4.70
2018-01-06T18:53:07.547Z,4.70
2018-01-06T18:55:36.212Z,4.80
2018-01-06T18:58:03.733Z,4.50
2018-01-06T19:00:31.225Z,4.60
2018-01-06T19:02:58.690Z,4.60
2018-01-06T19:05:26.133Z,4.60
2018-01-06T19:07:54.940Z,4.60
2018-01-06T19:10:23.612Z,4.60
2018-01-06T19:12:51.463Z,4.50
2018-01-06T19:15:26.718Z,4.50
2018-01-06T19:18:00.033Z,4.50
2018-01-06T19:20:30.173Z,4.50
2018-01-06T19:22:58.502Z,4.60
2018-01-06T19:25:30.592Z,4.60
2018-01-06T19:28:07.334Z,4.70
2018-01-06T19:30:45.576Z,4.80
2018-01-06T19:33:28.146Z,4.80
2018-01-06T19:35:59.137Z,4.80
2018-01-06T19:38:27.976Z,4.80
2018-01-06T19:40:55.511Z,4.70
2018-01-06T19:43:23.007Z,4.70
2018-01-06T19:45:50.521Z,4.70
2018-01-06T19:48:18.045Z,4.70
2018-01-06T19:50:45.494Z,4.60
2018-01-06T19:53:12.947Z,4.60
2018-01-06T19:55:40.406Z,4.50
2018-01-06T19:58:07.861Z,4.40
2018-01-06T20:00:35.342Z,4.50
2018-01-06T20:03:02.828Z,4.50
2018-01-06T20:05:30.290Z,4.40
2018-01-06T20:07:57.778Z,4.40
2018-01-06T20:10:25.229Z,4.40
2018-01-06T20:12:52.703Z,4.50
2018-01-06T20:15:20.657Z,4.50
2018-01-06T20:17:48.228Z,4.50
2018-01-06T20:20:15.687Z,4.30
2018-01-06T20:22:43.923Z,4.40
2018-01-06T20:25:11.400Z,4.40
2018-01-06T20:27:38.961Z,4.30
2018-01-06T20:30:07.266Z,4.30
2018-01-06T20:32:34.771Z,4.20
2018-01-06T20:35:04.146Z,4.20
2018-01-06T20:37:31.669Z,4.00
2018-01-06T20:39:59.169Z,4.00
2018-01-06T20:42:26.723Z,3.90
2018-01-06T20:44:54.241Z,3.90
2018-01-06T20:47:21.731Z,3.80
2018-01-06T20:49:49.194Z,3.80
2018-01-06T20:52:16.685Z,3.80
2018-01-06T20:54:44.211Z,3.90
2018-01-06T20:57:11.703Z,3.90
2018-01-06T20:59:39.263Z,4.00
2018-01-06T21:02:06.835Z,4.00
2018-01-06T21:04:34.324Z,4.00
2018-01-06T21:07:01.910Z,4.00
2018-01-06T21:09:29.518Z,3.90
2018-01-06T21:11:57.076Z,4.00
2018-01-06T21:14:24.540Z,3.80
2018-01-06T21:16:52.099Z,3.80
2018-01-06T21:19:19.678Z,3.60
2018-01-06T21:21:47.306Z,3.50
2018-01-06T21:24:15.640Z,3.40
2018-01-06T21:26:43.282Z,3.40
2018-01-06T21:29:15.153Z,3.20
2018-01-06T21:31:43.661Z,3.10
2018-01-06T21:34:11.207Z,3.00
2018-01-06T21:36:44.205Z,2.90
2018-01-06T21:39:11.984Z,2.80
2018-01-06T21:41:39.949Z,2.80
2018-01-06T21:44:12.187Z,2.90
2018-01-06T21:52:12.400Z,2.50
2018-01-06T21:54:53.539Z,2.50
2018-01-06T21:57:23.890Z,2.50
2018-01-06T21:59:53.149Z,2.60
2018-01-06T22:05:02.428Z,2.70
2018-01-06T22:07:35.708Z,2.70
2018-01-06T22:10:04.116Z,2.80
2018-01-06T22:29:07.925Z,2.90
2018-01-06T22:31:35.566Z,2.90
2018-01-06T22:34:03.316Z,2.90
2018-01-06T22:36:30.898Z,3.00
2018-01-06T22:38:58.584Z,3.00
2018-01-06T22:41:30.940Z,2.90
2018-01-06T22:46:47.058Z,2.90
2018-01-06T22:49:14.580Z,2.90
2018-01-06T22:51:42.192Z,2.90
2018-01-06T23:05:21.967Z,3.10
2018-01-06T23:08:55.615Z,3.30
2018-01-06T23:11:27.224Z,3.20
2018-01-06T23:14:00.477Z,3.10
2018-01-06T23:16:48.616Z,3.00
2018-01-06T23:19:31.838Z,3.00
2018-01-06T23:22:02.176Z,3.00
2018-01-06T23:24:32.809Z,3.00
2018-01-06T23:27:09.857Z,3.00
2018-01-06T23:29:37.572Z,3.00
2018-01-06T23:32:28.471Z,2.90
2018-01-06T23:35:01.383Z,3.00
2018-01-06T23:37:29.942Z,3.00
2018-01-06T23:39:57.510Z,3.10
2018-01-06T23:42:25.206Z,3.10
2018-01-06T23:44:56.637Z,3.00
2018-01-06T23:47:25.144Z,2.90
2018-01-06T23:50:03.614Z,2.80
2018-01-06T23:52:31.202Z,2.80
2018-01-06T23:54:58.758Z,2.80
2018-01-06T23:57:27.687Z,2.70
2018-01-06T23:59:55.237Z,2.60
